createdAt,value
2023-05-13T00:00:26.975Z,13.06
2023-05-13T00:02:30.213Z,13.02
2023-05-13T00:04:31.870Z,12.99
2023-05-13T00:06:33.537Z,12.97
2023-05-13T00:08:37.668Z,12.96
2023-05-13T00:10:39.846Z,12.93
2023-05-13T00:12:41.823Z,12.90
2023-05-13T00:14:44.026Z,12.86
2023-05-13T00:16:45.639Z,12.84
2023-05-13T00:18:48.924Z,12.80
2023-05-13T00:20:50.863Z,12.77
2023-05-13T00:22:54.556Z,12.74
2023-05-13T00:24:56.132Z,12.69
2023-05-13T00:26:57.787Z,12.67
2023-05-13T00:28:59.743Z,12.65
2023-05-13T00:31:01.391Z,12.64
2023-05-13T00:33:03.262Z,12.62
2023-05-13T00:35:07.095Z,12.61
2023-05-13T00:37:08.876Z,12.60
2023-05-13T00:39:10.777Z,12.59
2023-05-13T00:41:12.597Z,12.58
2023-05-13T00:43:14.448Z,12.56
2023-05-13T00:45:18.184Z,12.54
2023-05-13T00:47:20.234Z,12.52
2023-05-13T00:49:22.211Z,12.50
2023-05-13T00:51:25.547Z,12.45
2023-05-13T00:53:27.321Z,12.44
2023-05-13T00:55:29.170Z,12.43
2023-05-13T00:57:30.859Z,12.41
2023-05-13T00:59:32.423Z,12.38
2023-05-13T01:01:42.115Z,12.38
2023-05-13T01:03:51.366Z,12.35
2023-05-13T01:06:01.762Z,12.34
2023-05-13T01:08:15.395Z,12.32
2023-05-13T01:10:28.054Z,12.31
2023-05-13T01:12:33.298Z,12.27
2023-05-13T01:14:40.523Z,12.25
2023-05-13T01:16:49.488Z,12.24
2023-05-13T01:18:56.805Z,12.22
2023-05-13T01:21:01.070Z,12.19
2023-05-13T01:23:04.117Z,12.17
2023-05-13T01:25:06.311Z,12.15
2023-05-13T01:27:08.451Z,12.12
2023-05-13T01:29:10.466Z,12.09
2023-05-13T01:31:13.168Z,12.07
2023-05-13T01:33:17.324Z,12.03
2023-05-13T01:35:20.817Z,12.01
2023-05-13T01:37:22.940Z,11.97
2023-05-13T01:39:26.593Z,11.94
2023-05-13T01:41:28.985Z,11.91
2023-05-13T01:43:31.021Z,11.89
2023-05-13T01:45:32.815Z,11.87
2023-05-13T01:47:34.719Z,11.84
2023-05-13T01:49:36.688Z,11.81
2023-05-13T01:51:38.658Z,11.80
2023-05-13T01:53:40.292Z,11.77
2023-05-13T01:55:43.285Z,11.76
2023-05-13T01:57:45.582Z,11.75
2023-05-13T01:59:47.201Z,11.74
2023-05-13T02:01:49.280Z,11.71
2023-05-13T02:03:51.541Z,11.70
2023-05-13T02:05:53.687Z,11.68
2023-05-13T02:07:55.700Z,11.67
2023-05-13T02:09:57.349Z,11.64
2023-05-13T02:12:00.575Z,11.62
2023-05-13T02:14:02.383Z,11.61
2023-05-13T02:16:05.244Z,11.58
2023-05-13T02:18:06.923Z,11.57
2023-05-13T02:20:10.048Z,11.55
2023-05-13T02:22:12.065Z,11.53
2023-05-13T02:24:13.724Z,11.51
2023-05-13T02:26:15.265Z,11.50
2023-05-13T02:28:18.229Z,11.46
2023-05-13T02:30:20.569Z,11.44
2023-05-13T02:32:22.464Z,11.42
2023-05-13T02:34:24.084Z,11.38
2023-05-13T02:36:25.624Z,11.36
2023-05-13T02:38:27.369Z,11.35
2023-05-13T02:40:28.913Z,11.32
2023-05-13T02:42:30.494Z,11.30
2023-05-13T02:44:33.594Z,11.28
2023-05-13T02:46:35.503Z,11.26
2023-05-13T02:48:37.142Z,11.23
2023-05-13T02:50:39.227Z,11.21
2023-05-13T02:52:41.174Z,11.19
2023-05-13T02:54:43.172Z,11.17
2023-05-13T02:56:44.827Z,11.15
2023-05-13T02:58:46.848Z,11.12
2023-05-13T03:00:49.802Z,11.10
2023-05-13T03:02:51.752Z,11.05
2023-05-13T03:04:53.573Z,11.05
2023-05-13T03:06:55.212Z,11.02
2023-05-13T03:08:57.063Z,11.00
2023-05-13T03:10:59.134Z,10.97
2023-05-13T03:13:01.482Z,10.96
2023-05-13T03:15:03.265Z,10.95
2023-05-13T03:17:07.214Z,10.93
2023-05-13T03:19:08.960Z,10.91
2023-05-13T03:21:10.852Z,10.91
2023-05-13T03:23:12.803Z,10.88
2023-05-13T03:25:14.455Z,10.88
2023-05-13T03:27:16.242Z,10.87
2023-05-13T03:29:18.139Z,10.87
2023-05-13T03:31:20.028Z,10.86
2023-05-13T03:33:23.328Z,10.86
2023-05-13T03:35:24.821Z,10.86
2023-05-13T03:37:26.670Z,10.87
2023-05-13T03:39:28.472Z,10.88
2023-05-13T03:41:30.089Z,10.89
2023-05-13T03:43:31.977Z,11.00
2023-05-13T03:45:33.503Z,11.17
2023-05-13T03:47:35.357Z,11.29
2023-05-13T03:49:38.336Z,11.36
2023-05-13T03:51:39.968Z,11.36
2023-05-13T03:53:41.824Z,11.33
2023-05-13T03:55:43.692Z,11.35
2023-05-13T03:57:51.403Z,11.36
2023-05-13T03:59:52.998Z,11.37
2023-05-13T04:01:54.897Z,11.40
2023-05-13T04:03:56.698Z,11.42
2023-05-13T04:05:59.910Z,11.44
2023-05-13T04:08:01.568Z,11.46
2023-05-13T04:10:03.472Z,11.49
2023-05-13T04:12:05.821Z,11.52
2023-05-13T04:14:07.432Z,11.55
2023-05-13T04:16:09.606Z,11.59
2023-05-13T04:18:11.230Z,11.62
2023-05-13T04:20:13.278Z,11.66
2023-05-13T04:22:16.224Z,11.69
2023-05-13T04:24:17.921Z,11.73
2023-05-13T04:26:19.514Z,11.78
2023-05-13T04:28:21.366Z,11.82
2023-05-13T04:30:23.602Z,11.87
2023-05-13T04:32:25.313Z,11.92
2023-05-13T04:34:27.162Z,11.97
2023-05-13T04:36:28.708Z,12.01
2023-05-13T04:38:32.372Z,12.08
2023-05-13T04:40:33.957Z,12.12
2023-05-13T04:42:35.787Z,12.20
2023-05-13T04:44:37.567Z,12.26
2023-05-13T04:46:39.163Z,12.31
2023-05-13T04:48:41.198Z,12.39
2023-05-13T04:50:45.962Z,12.47
2023-05-13T04:52:48.185Z,12.52
2023-05-13T04:54:51.897Z,12.59
2023-05-13T04:56:53.840Z,12.67
2023-05-13T04:58:55.416Z,12.77
2023-05-13T05:00:57.053Z,12.85
2023-05-13T05:02:58.788Z,12.93
2023-05-13T05:05:00.725Z,13.00
2023-05-13T05:07:02.336Z,13.09
2023-05-13T05:09:04.054Z,13.18
2023-05-13T05:11:06.976Z,13.26
2023-05-13T05:13:09.547Z,13.35
2023-05-13T05:15:11.998Z,13.44
2023-05-13T05:17:13.578Z,13.53
2023-05-13T05:19:15.915Z,13.62
2023-05-13T05:21:17.564Z,13.73
2023-05-13T05:23:19.203Z,13.82
2023-05-13T05:25:21.037Z,13.92
2023-05-13T05:27:24.346Z,14.03
2023-05-13T05:29:25.996Z,14.16
2023-05-13T05:31:27.672Z,14.28
2023-05-13T05:33:29.585Z,14.40
2023-05-13T05:35:31.414Z,14.51
2023-05-13T05:37:33.386Z,14.63
2023-05-13T05:39:35.285Z,14.72
2023-05-13T05:41:37.144Z,14.81
2023-05-13T05:43:40.592Z,14.90
2023-05-13T05:45:42.308Z,14.99
2023-05-13T05:47:43.861Z,15.10
2023-05-13T05:49:45.411Z,15.21
2023-05-13T05:51:47.026Z,15.32
2023-05-13T05:53:48.636Z,15.42
2023-05-13T05:55:51.673Z,15.54
2023-05-13T05:57:54.724Z,15.65
2023-05-13T05:59:58.454Z,15.77
2023-05-13T06:02:00.049Z,15.89
2023-05-13T06:04:01.781Z,15.99
2023-05-13T06:06:03.974Z,16.13
2023-05-13T06:08:05.872Z,16.26
2023-05-13T06:10:08.447Z,16.39
2023-05-13T06:12:10.958Z,16.52
2023-05-13T06:14:12.580Z,16.67
2023-05-13T06:16:15.575Z,16.79
2023-05-13T06:18:17.201Z,16.90
2023-05-13T06:20:19.337Z,17.03
2023-05-13T06:22:21.161Z,17.15
2023-05-13T06:24:22.736Z,17.25
2023-05-13T06:26:24.825Z,17.37
2023-05-13T06:28:26.663Z,17.50
2023-05-13T06:30:28.526Z,17.65
2023-05-13T06:32:31.637Z,17.79
2023-05-13T06:34:33.183Z,17.94
2023-05-13T06:36:34.830Z,18.07
2023-05-13T06:38:36.654Z,18.21
2023-05-13T06:40:38.452Z,18.35
2023-05-13T06:42:40.293Z,18.48
2023-05-13T06:44:42.210Z,18.59
2023-05-13T06:46:43.855Z,18.71
2023-05-13T06:48:46.924Z,18.83
2023-05-13T06:50:48.540Z,18.96
2023-05-13T06:52:50.082Z,19.09
2023-05-13T06:54:51.692Z,19.22
2023-05-13T06:56:53.738Z,19.34
2023-05-13T06:58:55.852Z,19.44
2023-05-13T07:00:57.759Z,19.56
2023-05-13T07:02:59.750Z,19.69
2023-05-13T07:05:02.764Z,19.82
2023-05-13T07:07:04.704Z,19.96
2023-05-13T07:09:08.472Z,20.09
2023-05-13T07:11:10.116Z,20.21
2023-05-13T07:13:12.397Z,20.36
2023-05-13T07:15:14.030Z,20.51
2023-05-13T07:17:15.870Z,20.64
2023-05-13T07:19:17.685Z,20.76
2023-05-13T07:21:20.867Z,20.90
2023-05-13T07:23:23.478Z,21.01
2023-05-13T07:25:25.111Z,21.11
2023-05-13T07:27:26.744Z,21.22
2023-05-13T07:29:28.560Z,21.31
2023-05-13T07:31:31.091Z,21.42
2023-05-13T07:33:32.746Z,21.53
2023-05-13T07:35:34.636Z,21.66
2023-05-13T07:37:37.943Z,21.78
2023-05-13T07:39:39.568Z,21.91
2023-05-13T07:41:41.183Z,22.02
2023-05-13T07:43:43.315Z,22.14
2023-05-13T07:45:44.885Z,22.24
2023-05-13T07:47:46.775Z,22.36
2023-05-13T07:49:49.269Z,22.46
2023-05-13T07:51:50.919Z,22.56
2023-05-13T07:53:53.968Z,22.66
2023-05-13T07:55:55.806Z,22.77
2023-05-13T07:57:57.485Z,22.86
2023-05-13T07:59:59.388Z,22.95
2023-05-13T08:02:01.926Z,23.04
2023-05-13T08:04:03.959Z,23.13
2023-05-13T08:06:05.903Z,23.21
2023-05-13T08:08:07.517Z,23.29
2023-05-13T08:10:11.282Z,23.39
2023-05-13T08:12:12.855Z,23.48
2023-05-13T08:14:14.392Z,23.55
2023-05-13T08:16:16.252Z,23.63
2023-05-13T08:18:18.267Z,23.71
2023-05-13T08:20:20.531Z,23.80
2023-05-13T08:22:23.129Z,23.90
2023-05-13T08:24:24.879Z,24.01
2023-05-13T08:26:28.228Z,24.14
2023-05-13T08:28:30.250Z,24.27
2023-05-13T08:30:32.063Z,24.38
2023-05-13T08:32:33.728Z,24.51
2023-05-13T08:34:35.385Z,24.61
2023-05-13T08:36:36.958Z,24.71
2023-05-13T08:38:38.827Z,24.83
2023-05-13T08:40:42.161Z,24.95
2023-05-13T08:42:48.148Z,25.10
2023-05-13T08:44:52.476Z,25.23
2023-05-13T08:47:02.222Z,25.37
2023-05-13T08:49:04.833Z,25.46
2023-05-13T08:51:06.958Z,25.56
2023-05-13T08:53:11.319Z,25.67
2023-05-13T08:55:13.231Z,25.80
2023-05-13T08:57:16.214Z,25.89
2023-05-13T08:59:19.757Z,25.98
2023-05-13T09:01:22.902Z,26.09
2023-05-13T09:03:28.921Z,26.17
2023-05-13T09:05:31.505Z,26.22
2023-05-13T09:07:33.760Z,26.26
2023-05-13T09:09:37.247Z,26.29
2023-05-13T09:11:39.082Z,26.32
2023-05-13T09:13:43.360Z,26.35
2023-05-13T09:15:46.356Z,26.36
2023-05-13T09:17:49.750Z,26.42
2023-05-13T09:19:51.670Z,26.47
2023-05-13T09:21:54.077Z,26.51
2023-05-13T09:24:11.319Z,26.60
2023-05-13T09:26:26.891Z,26.66
2023-05-13T09:28:28.492Z,26.69
2023-05-13T09:30:33.946Z,26.73
2023-05-13T09:32:37.417Z,26.79
2023-05-13T09:34:40.363Z,26.86
2023-05-13T09:36:42.021Z,26.93
2023-05-13T09:38:43.934Z,27.04
2023-05-13T09:40:52.235Z,27.14
2023-05-13T09:42:57.820Z,27.22
2023-05-13T09:45:05.359Z,27.29
2023-05-13T09:47:07.130Z,27.33
2023-05-13T09:49:10.787Z,27.39
2023-05-13T09:51:12.406Z,27.47
2023-05-13T09:53:14.217Z,27.52
2023-05-13T09:55:16.342Z,27.43
2023-05-13T09:57:18.022Z,27.47
2023-05-13T09:59:19.616Z,27.49
2023-05-13T10:01:22.196Z,27.53
